createdAt,value
2023-01-17T00:09:52.825Z,0.49498327759197325
2023-01-17T00:16:19.943Z,0.6153846153846154
2023-01-17T00:22:46.693Z,1.0568561872909699
2023-01-17T00:33:08.034Z,1.0301003344481605
2023-01-17T00:39:34.993Z,1.1337792642140467
2023-01-17T00:46:01.959Z,1.3812709030100334
2023-01-17T00:52:26.672Z,1.8762541806020068
2023-01-17T00:58:51.086Z,1.3444816053511706
2023-01-17T01:16:32.754Z,2.6454849498327757
2023-01-17T01:22:56.646Z,1.899665551839465
2023-01-17T01:29:19.859Z,1.5150501672240804
2023-01-17T01:35:43.888Z,2.177257525083612
2023-01-17T01:47:21.074Z,3.220735785953177
2023-01-17T01:53:45.567Z,2.5551839464882944
2023-01-17T02:02:18.563Z,1.8193979933110367
2023-01-17T02:08:43.301Z,3.274247491638796
2023-01-17T02:28:26.194Z,2.9331103678929766
2023-01-17T02:34:51.149Z,2.765886287625418
2023-01-17T02:41:16.626Z,1.7792642140468227
2023-01-17T02:47:40.764Z,2.0535117056856187
2023-01-17T03:00:47.555Z,0.7558528428093646
2023-01-17T03:07:11.575Z,1.2575250836120402
2023-01-17T03:15:50.886Z,0.5886287625418061
2023-01-17T03:22:13.597Z,0.2809364548494983
2023-01-17T03:28:36.560Z,0.9297658862876255
2023-01-17T03:39:13.303Z,0.32441471571906355
2023-01-17T03:49:25.252Z,0.7224080267558528
2023-01-17T03:55:49.846Z,0.026755852842809364
2023-01-17T04:02:13.671Z,0.3277591973244147
2023-01-17T04:08:37.414Z,0.09364548494983277
2023-01-17T04:15:00.285Z,0.30434782608695654
2023-01-17T04:21:22.145Z,0.08695652173913043
2023-01-17T04:36:03.440Z,0.08695652173913043
2023-01-17T04:42:26.221Z,0.17391304347826086
2023-01-17T04:51:33.241Z,0.27424749163879597
2023-01-17T04:57:55.471Z,0.40468227424749165
2023-01-17T05:04:18.013Z,0.6555183946488294
2023-01-17T05:10:41.319Z,0.6555183946488294
2023-01-17T05:17:04.678Z,0.9431438127090301
2023-01-17T05:23:29.673Z,0.919732441471572
2023-01-17T05:29:56.115Z,0.5886287625418061
2023-01-17T05:36:21.234Z,1.0635451505016722
2023-01-17T05:42:45.088Z,1.1505016722408026
2023-01-17T05:49:10.341Z,1.4046822742474916
2023-01-17T05:55:33.313Z,1.979933110367893
2023-01-17T06:01:56.912Z,1.0969899665551839
2023-01-17T06:08:19.777Z,1.0535117056856187
2023-01-17T06:14:43.719Z,1.3043478260869565
2023-01-17T06:21:07.700Z,0.38127090301003347
2023-01-17T06:27:32.549Z,0.7224080267558528
2023-01-17T06:33:56.970Z,0.6354515050167224
2023-01-17T06:40:20.681Z,0.6822742474916388
2023-01-17T06:46:44.968Z,1.2608695652173914
2023-01-17T06:53:10.723Z,1.214046822742475
2023-01-17T06:59:35.418Z,0.5652173913043478
2023-01-17T07:06:00.796Z,0.959866220735786
2023-01-17T07:12:26.383Z,0.7558528428093646
2023-01-17T07:24:18.848Z,0.5953177257525084
2023-01-17T07:30:46.049Z,1.4581939799331103
2023-01-17T07:42:58.052Z,0.7090301003344481
2023-01-17T07:49:38.484Z,1.1438127090301002
2023-01-17T07:56:04.937Z,1.391304347826087
2023-01-17T08:02:31.407Z,0.8060200668896321
2023-01-17T08:09:00.655Z,1.2173913043478262
2023-01-17T08:15:34.946Z,1.0367892976588629
2023-01-17T08:22:02.841Z,1.5551839464882944
2023-01-17T08:28:30.711Z,1.6387959866220736
2023-01-17T08:34:59.970Z,0.9498327759197325
2023-01-17T08:41:27.347Z,0.9698996655518395
2023-01-17T08:47:55.562Z,1.7959866220735785
2023-01-17T08:55:46.664Z,1.7558528428093645
2023-01-17T09:02:14.595Z,1.528428093645485
2023-01-17T09:08:48.232Z,1.0635451505016722
2023-01-17T09:19:24.257Z,1.4448160535117056
2023-01-17T09:27:08.776Z,1.565217391304348
2023-01-17T09:33:36.446Z,1.0635451505016722
2023-01-17T09:41:06.214Z,1.0836120401337792
2023-01-17T09:50:19.392Z,1.9163879598662208
2023-01-17T09:56:48.635Z,1.137123745819398
2023-01-17T10:03:18.096Z,1.7625418060200668
2023-01-17T10:09:48.143Z,1.391304347826087
2023-01-17T10:16:18.087Z,1.6555183946488294
2023-01-17T10:22:47.873Z,1.6622073578595318
2023-01-17T10:29:20.053Z,0.9765886287625418
2023-01-17T10:35:53.282Z,0.8361204013377926
2023-01-17T10:42:22.980Z,1.2173913043478262
2023-01-17T10:51:09.627Z,0.8327759197324415
2023-01-17T10:57:38.083Z,2.294314381270903
2023-01-17T11:08:48.378Z,1.1705685618729098
2023-01-17T11:15:19.107Z,2.060200668896321
2023-01-17T11:21:48.362Z,1.645484949832776
2023-01-17T11:28:17.721Z,1.120401337792642
2023-01-17T11:34:54.517Z,0.842809364548495
2023-01-17T11:47:50.849Z,1.0568561872909699
2023-01-17T11:54:19.400Z,1.1304347826086956
2023-01-17T12:00:50.067Z,0.9264214046822743
2023-01-17T12:07:18.594Z,0.9297658862876255
2023-01-17T12:13:45.955Z,1.4448160535117056
2023-01-17T12:20:15.004Z,1.2240802675585285
2023-01-17T12:29:35.922Z,0.7157190635451505
2023-01-17T12:36:34.317Z,1.2909698996655519
2023-01-17T12:43:19.213Z,0.7759197324414716
2023-01-17T12:49:48.773Z,1.0869565217391304
2023-01-17T12:56:17.559Z,1.1103678929765886
2023-01-17T13:02:47.751Z,1.3177257525083612
2023-01-17T13:09:15.963Z,0.7959866220735786
2023-01-17T13:15:44.712Z,1.3311036789297659
2023-01-17T13:22:13.373Z,1.2709030100334449
2023-01-17T13:28:43.287Z,1.5016722408026757
2023-01-17T13:35:13.509Z,1.5919732441471572
2023-01-17T13:41:42.544Z,1.3311036789297659
2023-01-17T13:54:05.305Z,1.37123745819398
2023-01-17T14:00:34.680Z,1.7759197324414715
2023-01-17T14:07:04.109Z,1.2173913043478262
2023-01-17T14:13:42.098Z,2.0836120401337794
2023-01-17T14:20:11.529Z,1.62876254180602
2023-01-17T14:26:41.084Z,1.6722408026755853
2023-01-17T14:33:20.729Z,4.287625418060201
2023-01-17T14:39:50.295Z,1.3411371237458194
2023-01-17T14:50:14.607Z,3.1872909698996654
2023-01-17T15:07:01.265Z,1.565217391304348
2023-01-17T15:14:01.313Z,1.3110367892976589
2023-01-17T15:22:34.740Z,2.1036789297658864
2023-01-17T15:30:56.731Z,1.4481605351170568
2023-01-17T15:43:26.224Z,2.3444816053511706
2023-01-17T15:49:52.885Z,1.4247491638795986
2023-01-17T15:56:18.561Z,0.8294314381270903
2023-01-17T16:02:44.988Z,1.6555183946488294
2023-01-17T16:09:18.860Z,2.25752508361204
2023-01-17T16:15:43.077Z,2.4347826086956523
2023-01-17T16:22:08.658Z,2.0903010033444818
2023-01-17T16:36:11.760Z,1.9732441471571907
2023-01-17T16:42:38.205Z,1.7525083612040133
2023-01-17T16:49:05.021Z,1.5618729096989967
2023-01-17T16:55:34.678Z,1.5117056856187292
2023-01-17T17:02:03.327Z,1.7993311036789297
2023-01-17T17:19:37.369Z,2.762541806020067
2023-01-17T17:26:06.614Z,2.2040133779264215
2023-01-17T17:32:34.398Z,1.9866220735785953
2023-01-17T17:43:15.855Z,3.688963210702341
2023-01-17T17:55:52.118Z,4.983277591973244
2023-01-17T18:02:19.010Z,4.230769230769231
2023-01-17T18:08:49.395Z,3.7558528428093645
2023-01-17T18:15:32.064Z,6.046822742474917
2023-01-17T18:22:01.548Z,6.153846153846154
2023-01-17T18:30:14.262Z,5.277591973244147
2023-01-17T18:37:12.985Z,7.678929765886288
2023-01-17T18:43:43.489Z,4.535117056856187
2023-01-17T18:50:11.196Z,8.642140468227424
2023-01-17T18:56:43.456Z,18.42809364548495
2023-01-17T19:06:25.441Z,25.91304347826087
2023-01-17T19:12:58.604Z,8.561872909698996
2023-01-17T19:27:06.131Z,6.508361204013378
2023-01-17T19:33:34.839Z,3.6622073578595318
2023-01-17T19:40:02.757Z,6.5719063545150505
2023-01-17T19:46:33.107Z,4.317725752508361
2023-01-17T19:53:04.275Z,4.62876254180602
2023-01-17T20:01:54.167Z,4.210702341137123
2023-01-17T20:08:55.606Z,4.949832775919733
2023-01-17T20:15:26.535Z,5.321070234113712
2023-01-17T20:28:34.319Z,4.919732441471572
2023-01-17T20:35:04.542Z,4.367892976588629
2023-01-17T20:41:33.959Z,4.234113712374582
2023-01-17T20:48:05.015Z,14.491638795986622
2023-01-17T20:54:35.661Z,11.280936454849499
2023-01-17T21:01:06.777Z,4.903010033444816
2023-01-17T21:08:19.492Z,5.481605351170568
2023-01-17T21:17:49.679Z,5.280936454849498
2023-01-17T21:26:44.604Z,6.923076923076923
2023-01-17T21:33:17.213Z,6.374581939799331
2023-01-17T21:42:35.841Z,4.822742474916388
2023-01-17T21:59:13.355Z,5.896321070234114
2023-01-17T22:12:02.925Z,4.046822742474917
2023-01-17T22:18:33.437Z,4.374581939799331
2023-01-17T22:25:14.542Z,3.4949832775919734
2023-01-17T22:31:47.952Z,5.892976588628763
2023-01-17T22:44:31.068Z,5.645484949832776
2023-01-17T22:53:13.771Z,4.173913043478261
2023-01-17T23:01:17.457Z,5.963210702341137
2023-01-17T23:15:27.221Z,7.491638795986622
2023-01-17T23:27:42.284Z,6.678929765886288
2023-01-17T23:35:46.683Z,5.418060200668896
2023-01-17T23:46:22.998Z,6.792642140468227
2023-01-17T23:55:28.416Z,5.88628762541806
